createdAt,value
2023-04-18T00:01:29.647Z,103326.06
2023-04-18T00:03:56.686Z,103316.63
2023-04-18T00:06:23.494Z,103321.16
2023-04-18T00:08:50.147Z,103320.25
2023-04-18T00:11:16.906Z,103318.41
2023-04-18T00:13:44.398Z,103318.56
2023-04-18T00:16:13.345Z,103315.91
2023-04-18T00:18:40.495Z,103309.88
2023-04-18T00:21:08.620Z,103312.66
2023-04-18T00:23:36.156Z,103318.13
2023-04-18T00:26:02.943Z,103319.69
2023-04-18T00:28:29.742Z,103317.34
2023-04-18T00:30:56.640Z,103317.16
2023-04-18T00:33:23.423Z,103313.47
2023-04-18T00:35:50.203Z,103320.94
2023-04-18T00:38:16.909Z,103320.94
2023-04-18T00:40:43.566Z,103317.66
2023-04-18T00:43:13.585Z,103323.09
2023-04-18T00:45:40.272Z,103323.41
2023-04-18T00:48:07.288Z,103319.66
2023-04-18T00:50:34.120Z,103318.94
2023-04-18T00:53:01.010Z,103316.28
2023-04-18T00:55:29.554Z,103314.69
2023-04-18T00:57:56.261Z,103319.31
2023-04-18T01:00:23.064Z,103319.22
2023-04-18T01:02:53.199Z,103324.56
2023-04-18T01:05:21.490Z,103318.41
2023-04-18T01:07:48.927Z,103306.75
2023-04-18T01:10:15.850Z,103306.81
2023-04-18T01:12:42.495Z,103298.66
2023-04-18T01:15:09.357Z,103304.28
2023-04-18T01:17:36.039Z,103302.38
2023-04-18T01:20:06.048Z,103307.81
2023-04-18T01:22:33.270Z,103296.28
2023-04-18T01:25:00.061Z,103295.41
2023-04-18T01:27:26.846Z,103295.19
2023-04-18T01:29:53.681Z,103299.78
2023-04-18T01:32:20.689Z,103293.63
2023-04-18T01:34:47.679Z,103303.44
2023-04-18T01:37:14.509Z,103290.94
2023-04-18T01:39:41.262Z,103289.19
2023-04-18T01:42:08.078Z,103283.94
2023-04-18T01:44:34.773Z,103284.00
2023-04-18T01:47:01.595Z,103275.97
2023-04-18T01:49:28.468Z,103279.63
2023-04-18T01:51:55.212Z,103275.13
2023-04-18T01:54:21.845Z,103277.84
2023-04-18T01:56:48.543Z,103277.81
2023-04-18T01:59:15.225Z,103273.31
2023-04-18T02:01:42.862Z,103265.25
2023-04-18T02:04:09.624Z,103264.84
2023-04-18T02:06:36.369Z,103270.34
2023-04-18T02:09:03.056Z,103263.09
2023-04-18T02:11:30.035Z,103258.66
2023-04-18T02:13:56.746Z,103260.34
2023-04-18T02:16:23.591Z,103262.16
2023-04-18T02:18:52.785Z,103252.38
2023-04-18T02:21:19.505Z,103259.69
2023-04-18T02:23:46.191Z,103260.72
2023-04-18T02:26:12.898Z,103255.22
2023-04-18T02:28:39.673Z,103252.44
2023-04-18T02:31:07.862Z,103256.09
2023-04-18T02:33:34.617Z,103255.06
2023-04-18T02:36:01.871Z,103252.41
2023-04-18T02:38:28.566Z,103253.94
2023-04-18T02:40:56.060Z,103252.13
2023-04-18T02:43:22.740Z,103245.81
2023-04-18T02:45:49.541Z,103252.72
2023-04-18T02:48:16.340Z,103263.34
2023-04-18T02:50:43.058Z,103258.91
2023-04-18T02:53:09.707Z,103267.91
2023-04-18T02:55:37.251Z,103266.06
2023-04-18T02:58:03.908Z,103275.22
2023-04-18T03:00:30.602Z,103272.69
2023-04-18T03:02:57.425Z,103276.16
2023-04-18T03:05:24.249Z,103277.78
2023-04-18T03:07:50.941Z,103286.16
2023-04-18T03:10:17.768Z,103296.94
2023-04-18T03:12:44.469Z,103289.88
2023-04-18T03:15:11.479Z,103290.94
2023-04-18T03:17:38.223Z,103295.38
2023-04-18T03:20:05.693Z,103296.31
2023-04-18T03:22:32.382Z,103292.03
2023-04-18T03:25:00.686Z,103297.44
2023-04-18T03:27:27.488Z,103292.03
2023-04-18T03:29:54.138Z,103296.38
2023-04-18T03:32:21.024Z,103300.19
2023-04-18T03:34:48.715Z,103297.25
2023-04-18T03:37:15.379Z,103299.81
2023-04-18T03:39:42.101Z,103302.56
2023-04-18T03:42:08.838Z,103306.22
2023-04-18T03:44:35.579Z,103311.69
2023-04-18T03:47:02.402Z,103308.19
2023-04-18T03:49:29.083Z,103310.88
2023-04-18T03:51:55.749Z,103314.50
2023-04-18T03:54:22.406Z,103314.41
2023-04-18T03:56:49.236Z,103316.19
2023-04-18T03:59:16.320Z,103326.19
2023-04-18T04:01:43.037Z,103322.63
2023-04-18T04:04:12.150Z,103319.00
2023-04-18T04:06:39.297Z,103325.19
2023-04-18T04:09:06.409Z,103326.28
2023-04-18T04:11:33.216Z,103333.41
2023-04-18T04:13:59.972Z,103330.88
2023-04-18T04:16:28.021Z,103336.19
2023-04-18T04:18:54.717Z,103338.19
2023-04-18T04:21:21.418Z,103330.28
2023-04-18T04:23:48.179Z,103341.97
2023-04-18T04:26:15.871Z,103345.50
2023-04-18T04:28:46.346Z,103355.47
2023-04-18T04:31:13.089Z,103350.97
2023-04-18T04:33:41.032Z,103352.72
2023-04-18T04:36:08.978Z,103355.19
2023-04-18T04:38:38.313Z,103372.91
2023-04-18T04:41:09.244Z,103366.53
2023-04-18T04:43:36.268Z,103353.72
2023-04-18T04:46:04.313Z,103352.81
2023-04-18T04:48:31.097Z,103350.75
2023-04-18T04:50:59.494Z,103349.03
2023-04-18T04:53:28.189Z,103356.06
2023-04-18T04:55:55.026Z,103355.94
2023-04-18T04:58:21.683Z,103355.19
2023-04-18T05:00:48.403Z,103349.50
2023-04-18T05:03:15.522Z,103354.09
2023-04-18T05:05:42.618Z,103344.16
2023-04-18T05:08:09.292Z,103348.31
2023-04-18T05:10:38.725Z,103347.47
2023-04-18T05:13:05.455Z,103351.84
2023-04-18T05:15:32.430Z,103353.63
2023-04-18T05:17:59.322Z,103346.38
2023-04-18T05:20:26.141Z,103360.31
2023-04-18T05:22:52.812Z,103357.38
2023-04-18T05:25:19.970Z,103360.22
2023-04-18T05:27:47.158Z,103363.59
2023-04-18T05:30:14.297Z,103362.44
2023-04-18T05:32:41.087Z,103362.50
2023-04-18T05:35:08.423Z,103370.44
2023-04-18T05:37:35.466Z,103377.66
2023-04-18T05:40:02.871Z,103372.94
2023-04-18T05:42:29.560Z,103383.47
2023-04-18T05:44:56.237Z,103380.56
2023-04-18T05:47:24.223Z,103378.97
2023-04-18T05:49:51.011Z,103382.41
2023-04-18T05:52:17.696Z,103388.00
2023-04-18T05:54:44.406Z,103391.38
2023-04-18T05:57:11.139Z,103396.72
2023-04-18T05:59:37.919Z,103388.59
2023-04-18T06:02:04.724Z,103387.00
2023-04-18T06:04:31.605Z,103384.03
2023-04-18T06:06:58.537Z,103385.75
2023-04-18T06:09:25.213Z,103388.47
2023-04-18T06:11:51.930Z,103386.53
2023-04-18T06:14:18.607Z,103384.81
2023-04-18T06:16:45.302Z,103388.25
2023-04-18T06:19:11.970Z,103383.53
2023-04-18T06:21:39.566Z,103377.16
2023-04-18T06:24:06.780Z,103383.63
2023-04-18T06:26:33.560Z,103385.94
2023-04-18T06:29:00.310Z,103371.69
2023-04-18T06:31:27.128Z,103381.84
2023-04-18T06:33:53.876Z,103386.94
2023-04-18T06:36:21.421Z,103381.41
2023-04-18T06:38:48.121Z,103386.69
2023-04-18T06:41:15.914Z,103385.47
2023-04-18T06:43:52.062Z,103387.41
2023-04-18T06:46:28.671Z,103378.63
2023-04-18T06:48:55.433Z,103374.22
2023-04-18T06:51:22.164Z,103380.28
2023-04-18T06:53:52.506Z,103383.91
2023-04-18T06:56:20.580Z,103380.50
2023-04-18T06:58:47.875Z,103390.41
2023-04-18T07:01:14.717Z,103397.66
2023-04-18T07:03:41.416Z,103398.47
2023-04-18T07:06:10.572Z,103386.84
2023-04-18T07:08:37.470Z,103380.59
2023-04-18T07:11:04.299Z,103395.75
2023-04-18T07:13:31.016Z,103398.59
2023-04-18T07:15:57.763Z,103389.25
2023-04-18T07:18:36.740Z,103403.66
2023-04-18T07:21:07.493Z,103404.81
2023-04-18T07:23:34.834Z,103386.69
2023-04-18T07:26:02.884Z,103401.03
2023-04-18T07:28:31.152Z,103389.09
2023-04-18T07:30:58.220Z,103391.81
2023-04-18T07:33:25.584Z,103394.31
2023-04-18T07:35:53.096Z,103398.81
2023-04-18T07:38:20.057Z,103393.09
2023-04-18T07:40:47.107Z,103393.25
2023-04-18T07:43:13.785Z,103400.44
2023-04-18T07:45:43.439Z,103402.44
2023-04-18T07:48:11.354Z,103403.84
2023-04-18T07:50:38.130Z,103399.28
2023-04-18T07:53:04.933Z,103393.25
2023-04-18T07:55:31.904Z,103408.72
2023-04-18T07:57:58.539Z,103407.72
2023-04-18T08:00:25.272Z,103404.09
2023-04-18T08:02:52.217Z,103394.66
2023-04-18T08:05:19.913Z,103383.75
2023-04-18T08:07:46.593Z,103411.16
2023-04-18T08:10:13.367Z,103405.84
2023-04-18T08:12:40.699Z,103400.59
2023-04-18T08:15:08.179Z,103421.47
2023-04-18T08:17:34.988Z,103412.22
2023-04-18T08:20:05.067Z,103413.81
2023-04-18T08:22:31.871Z,103400.38
2023-04-18T08:25:05.086Z,103425.81
2023-04-18T08:27:32.694Z,103417.84
2023-04-18T08:29:59.534Z,103420.28
2023-04-18T08:32:26.329Z,103416.53
2023-04-18T08:34:53.097Z,103419.41
2023-04-18T08:37:19.796Z,103418.94
2023-04-18T08:39:46.493Z,103421.53
2023-04-18T08:42:19.394Z,103416.03
2023-04-18T08:44:47.265Z,103414.16
2023-04-18T08:47:14.731Z,103407.81
2023-04-18T08:49:42.688Z,103420.50
2023-04-18T08:52:18.995Z,103417.50
2023-04-18T08:54:47.217Z,103409.50
2023-04-18T08:57:16.708Z,103416.72
2023-04-18T08:59:47.117Z,103419.53
2023-04-18T09:02:15.670Z,103411.56
2023-04-18T09:04:52.671Z,103403.97
2023-04-18T09:07:30.955Z,103419.31
2023-04-18T09:09:58.212Z,103410.91
2023-04-18T09:12:27.098Z,103410.16
2023-04-18T09:14:59.686Z,103410.72
2023-04-18T09:17:38.076Z,103414.31
2023-04-18T09:20:06.180Z,103411.66
2023-04-18T09:22:52.997Z,103421.44
2023-04-18T09:25:40.056Z,103409.13
2023-04-18T09:28:31.918Z,103406.66
2023-04-18T09:31:13.379Z,103411.59
2023-04-18T09:33:52.780Z,103408.53
2023-04-18T09:36:23.827Z,103403.03
2023-04-18T09:38:55.332Z,103401.06
2023-04-18T09:41:23.339Z,103405.66
2023-04-18T09:43:50.129Z,103394.56
2023-04-18T09:46:21.757Z,103402.53
2023-04-18T09:48:48.543Z,103405.91
2023-04-18T09:51:16.670Z,103401.50
2023-04-18T09:53:44.894Z,103397.09
2023-04-18T09:56:28.237Z,103407.41
2023-04-18T09:59:07.336Z,103394.09
2023-04-18T10:01:34.995Z,103383.97
2023-04-18T10:04:07.786Z,103380.91
2023-04-18T10:06:38.503Z,103365.00
2023-04-18T10:09:06.386Z,103359.19
2023-04-18T10:11:33.455Z,103342.91
2023-04-18T10:14:11.830Z,103347.53
2023-04-18T10:16:39.633Z,103329.97
2023-04-18T10:19:26.451Z,103326.25
2023-04-18T10:22:01.229Z,103315.44
2023-04-18T10:24:57.086Z,103321.44
2023-04-18T10:27:48.400Z,103304.19
2023-04-18T10:30:18.741Z,103295.22
2023-04-18T10:32:48.754Z,103301.28
2023-04-18T10:35:15.503Z,103299.69
2023-04-18T10:37:52.329Z,103293.88
2023-04-18T10:40:33.196Z,103274.84
2023-04-18T10:43:00.130Z,103276.03
2023-04-18T10:45:29.716Z,103274.63
2023-04-18T10:48:32.627Z,103278.25
2023-04-18T10:51:18.699Z,103295.53
2023-04-18T10:53:52.377Z,103300.97
2023-04-18T10:56:20.487Z,103296.78
2023-04-18T10:58:51.287Z,103306.41
2023-04-18T11:01:27.062Z,103284.06
2023-04-18T11:03:55.873Z,103277.59
2023-04-18T11:06:27.235Z,103286.72
2023-04-18T11:09:13.854Z,103267.06
2023-04-18T11:11:41.585Z,103258.81
2023-04-18T11:14:08.444Z,103272.81
2023-04-18T11:16:35.677Z,103262.94
2023-04-18T11:19:20.040Z,103255.09
2023-04-18T11:21:46.923Z,103238.72
2023-04-18T11:24:22.000Z,103224.59
2023-04-18T11:26:48.650Z,103235.50
2023-04-18T11:29:17.951Z,103239.09
2023-04-18T11:31:55.819Z,103226.38
2023-04-18T11:34:30.401Z,103216.75
2023-04-18T11:36:57.422Z,103239.69
2023-04-18T11:39:24.464Z,103234.59
2023-04-18T11:41:51.356Z,103225.66
2023-04-18T11:44:18.800Z,103232.38
2023-04-18T11:46:45.501Z,103227.69
2023-04-18T11:49:32.306Z,103257.16
2023-04-18T11:52:01.125Z,103260.66
2023-04-18T11:54:41.752Z,103276.03
2023-04-18T11:57:29.219Z,103269.59
2023-04-18T11:59:57.891Z,103268.50
2023-04-18T12:02:45.882Z,103279.94
2023-04-18T12:05:24.301Z,103283.66
2023-04-18T12:07:51.321Z,103284.44
2023-04-18T12:10:28.050Z,103295.59
2023-04-18T12:12:58.697Z,103289.34
2023-04-18T12:15:30.144Z,103307.09
2023-04-18T12:18:01.606Z,103305.00
2023-04-18T12:20:36.447Z,103305.41
2023-04-18T12:23:03.817Z,103337.97
2023-04-18T12:25:31.629Z,103319.19
2023-04-18T12:27:58.353Z,103335.41
2023-04-18T12:30:27.916Z,103310.53
2023-04-18T12:32:58.005Z,103324.19
2023-04-18T12:35:25.651Z,103325.44
2023-04-18T12:37:54.352Z,103322.97
2023-04-18T12:40:22.976Z,103348.97
2023-04-18T12:42:51.032Z,103325.50
2023-04-18T12:45:19.071Z,103320.06
2023-04-18T12:47:47.492Z,103319.91
2023-04-18T12:50:19.262Z,103341.09
2023-04-18T12:52:46.750Z,103339.88
2023-04-18T12:55:15.554Z,103327.78
2023-04-18T12:57:43.160Z,103351.69
2023-04-18T13:00:11.213Z,103362.53
2023-04-18T13:02:40.303Z,103343.69
2023-04-18T13:05:09.292Z,103350.81
2023-04-18T13:07:37.979Z,103336.91
2023-04-18T13:10:05.300Z,103348.56
2023-04-18T13:12:32.035Z,103364.56
2023-04-18T13:14:58.690Z,103362.00
2023-04-18T13:17:26.222Z,103385.16
2023-04-18T13:19:52.916Z,103372.63
2023-04-18T13:22:20.747Z,103376.38
2023-04-18T13:24:48.243Z,103392.78
2023-04-18T13:27:15.402Z,103379.72
2023-04-18T13:29:43.457Z,103365.50
2023-04-18T13:32:10.363Z,103384.19
2023-04-18T13:34:39.089Z,103357.38
2023-04-18T13:37:06.494Z,103389.91
2023-04-18T13:39:33.709Z,103390.34
2023-04-18T13:42:02.966Z,103389.50
2023-04-18T13:44:30.831Z,103392.06
2023-04-18T13:46:57.901Z,103398.03
2023-04-18T13:49:24.639Z,103380.66
2023-04-18T13:51:53.526Z,103392.59
2023-04-18T13:54:20.606Z,103392.28
2023-04-18T13:56:47.352Z,103395.53
2023-04-18T13:59:15.047Z,103384.41
2023-04-18T14:01:42.829Z,103396.91
2023-04-18T14:04:09.681Z,103388.25
2023-04-18T14:06:36.609Z,103376.13
2023-04-18T14:09:03.354Z,103373.03
2023-04-18T14:11:30.120Z,103372.38
2023-04-18T14:13:56.775Z,103367.84
2023-04-18T14:16:23.781Z,103348.84
2023-04-18T14:18:50.661Z,103352.34
2023-04-18T14:21:17.408Z,103376.00
2023-04-18T14:23:44.050Z,103359.53
2023-04-18T14:26:11.217Z,103367.81
2023-04-18T14:28:37.946Z,103359.31
2023-04-18T14:31:06.502Z,103350.22
2023-04-18T14:33:34.138Z,103332.91
2023-04-18T14:36:02.470Z,103317.94
2023-04-18T14:38:29.216Z,103305.94
2023-04-18T14:40:56.019Z,103313.97
2023-04-18T14:43:22.769Z,103319.59
2023-04-18T14:45:49.699Z,103309.03
2023-04-18T14:48:16.827Z,103287.50
2023-04-18T14:50:43.865Z,103264.44
2023-04-18T14:53:11.110Z,103269.09
2023-04-18T14:55:37.945Z,103273.59
2023-04-18T14:58:04.605Z,103271.09
2023-04-18T15:00:32.465Z,103267.00
2023-04-18T15:02:59.327Z,103268.56
2023-04-18T15:05:26.513Z,103246.03
2023-04-18T15:07:53.278Z,103261.28
2023-04-18T15:10:22.716Z,103195.34
2023-04-18T15:12:51.073Z,103212.28
2023-04-18T15:15:19.411Z,103213.59
2023-04-18T15:17:46.108Z,103204.25
2023-04-18T15:20:13.087Z,103212.28
2023-04-18T15:22:39.828Z,103157.31
2023-04-18T15:25:07.350Z,103132.22
2023-04-18T15:27:34.006Z,103105.66
2023-04-18T15:30:00.851Z,103175.91
2023-04-18T15:32:27.601Z,103155.63
2023-04-18T15:34:54.307Z,103168.13
2023-04-18T15:37:21.513Z,103167.59
2023-04-18T15:39:48.254Z,103177.44
2023-04-18T15:42:14.970Z,103148.66
2023-04-18T15:44:41.631Z,103140.31
2023-04-18T15:47:08.353Z,103171.84
2023-04-18T15:49:38.623Z,103174.31
2023-04-18T15:52:06.848Z,103189.72
2023-04-18T15:54:33.540Z,103203.28
2023-04-18T15:57:00.169Z,103218.06
2023-04-18T15:59:26.906Z,103193.47
2023-04-18T16:01:53.714Z,103180.97
2023-04-18T16:04:20.479Z,103187.28
2023-04-18T16:06:47.184Z,103172.69
2023-04-18T16:09:14.464Z,103187.19
2023-04-18T16:11:41.196Z,103183.72
2023-04-18T16:14:07.892Z,103177.69
2023-04-18T16:16:34.587Z,103183.09
2023-04-18T16:19:01.267Z,103192.56
2023-04-18T16:21:28.379Z,103191.94
2023-04-18T16:23:55.070Z,103197.41
2023-04-18T16:26:23.762Z,103216.06
2023-04-18T16:28:50.955Z,103251.47
2023-04-18T16:31:17.662Z,103270.00
2023-04-18T16:33:45.365Z,103258.19
2023-04-18T16:36:12.220Z,103262.31
2023-04-18T16:38:38.924Z,103251.03
2023-04-18T16:41:05.883Z,103262.03
2023-04-18T16:43:36.319Z,103249.47
2023-04-18T16:46:03.400Z,103230.75
2023-04-18T16:48:30.233Z,103224.66
2023-04-18T16:50:57.379Z,103203.59
2023-04-18T16:53:24.603Z,103208.44
2023-04-18T16:55:53.042Z,103212.44
2023-04-18T16:58:21.170Z,103203.69
2023-04-18T17:00:47.835Z,103198.13
2023-04-18T17:03:14.576Z,103217.75
2023-04-18T17:05:41.420Z,103228.72
2023-04-18T17:08:08.668Z,103232.44
2023-04-18T17:10:35.474Z,103241.53
2023-04-18T17:13:03.404Z,103231.22
2023-04-18T17:15:30.788Z,103240.00
2023-04-18T17:18:00.269Z,103240.66
2023-04-18T17:20:28.028Z,103233.63
2023-04-18T17:22:55.254Z,103243.69
2023-04-18T17:25:22.134Z,103233.19
2023-04-18T17:27:48.888Z,103248.88
2023-04-18T17:30:15.702Z,103245.22
2023-04-18T17:32:45.901Z,103247.28
2023-04-18T17:35:14.842Z,103255.53
2023-04-18T17:37:42.748Z,103261.22
2023-04-18T17:40:11.408Z,103273.13
2023-04-18T17:42:38.342Z,103273.84
2023-04-18T17:45:06.902Z,103277.84
2023-04-18T17:47:34.613Z,103292.38
2023-04-18T17:50:01.427Z,103299.84
2023-04-18T17:52:31.237Z,103308.66
2023-04-18T17:54:59.487Z,103322.81
2023-04-18T17:57:26.702Z,103361.34
2023-04-18T17:59:53.693Z,103367.94
2023-04-18T18:02:20.539Z,103391.69
2023-04-18T18:04:47.313Z,103393.88
2023-04-18T18:07:14.077Z,103387.63
2023-04-18T18:09:44.564Z,103392.69
2023-04-18T18:12:11.727Z,103384.63
2023-04-18T18:14:40.435Z,103391.13
2023-04-18T18:17:07.451Z,103404.81
2023-04-18T18:19:37.498Z,103403.03
2023-04-18T18:22:04.265Z,103396.81
2023-04-18T18:24:31.115Z,103407.09
2023-04-18T18:26:58.136Z,103406.28
2023-04-18T18:29:25.055Z,103413.81
2023-04-18T18:31:51.755Z,103419.81
2023-04-18T18:34:19.924Z,103407.59
2023-04-18T18:36:47.231Z,103422.25
2023-04-18T18:39:16.529Z,103410.63
2023-04-18T18:41:43.666Z,103400.63
2023-04-18T18:44:14.491Z,103406.16
2023-04-18T18:46:43.163Z,103400.81
2023-04-18T18:49:10.122Z,103405.53
2023-04-18T18:51:37.171Z,103413.53
2023-04-18T18:54:03.985Z,103418.56
2023-04-18T18:56:30.690Z,103428.50
2023-04-18T18:58:57.376Z,103413.91
2023-04-18T19:01:24.137Z,103418.03
2023-04-18T19:03:51.168Z,103425.72
2023-04-18T19:06:18.087Z,103407.50
2023-04-18T19:08:44.928Z,103394.34
2023-04-18T19:11:12.793Z,103401.69
2023-04-18T19:13:39.715Z,103399.53
2023-04-18T19:16:06.511Z,103411.53
2023-04-18T19:18:33.450Z,103398.75
2023-04-18T19:21:00.164Z,103399.75
2023-04-18T19:23:27.822Z,103404.56
2023-04-18T19:25:54.754Z,103401.94
2023-04-18T19:28:22.867Z,103406.63
2023-04-18T19:30:50.298Z,103404.16
2023-04-18T19:33:17.350Z,103396.91
2023-04-18T19:35:44.060Z,103399.91
2023-04-18T19:38:10.755Z,103390.09
2023-04-18T19:40:37.752Z,103399.06
2023-04-18T19:43:04.417Z,103396.63
2023-04-18T19:45:31.715Z,103402.69
2023-04-18T19:47:58.517Z,103407.41
2023-04-18T19:50:25.370Z,103414.13
2023-04-18T19:52:52.028Z,103432.38
2023-04-18T19:55:18.709Z,103446.84
2023-04-18T19:57:45.928Z,103463.09
2023-04-18T20:00:13.452Z,103464.81
2023-04-18T20:02:41.408Z,103473.19
2023-04-18T20:05:09.297Z,103473.47
2023-04-18T20:07:36.278Z,103477.31
2023-04-18T20:10:04.362Z,103483.59
2023-04-18T20:12:31.482Z,103489.72
2023-04-18T20:14:59.001Z,103489.81
2023-04-18T20:17:30.508Z,103498.16
2023-04-18T20:19:57.829Z,103498.09
2023-04-18T20:22:27.408Z,103509.09
2023-04-18T20:24:57.121Z,103509.06
2023-04-18T20:27:24.420Z,103513.88
2023-04-18T20:29:51.156Z,103521.31
2023-04-18T20:32:17.823Z,103509.72
2023-04-18T20:34:46.639Z,103518.47
2023-04-18T20:37:15.530Z,103523.03
2023-04-18T20:39:42.343Z,103519.41
2023-04-18T20:42:14.189Z,103522.97
2023-04-18T20:44:43.247Z,103524.75
2023-04-18T20:47:09.926Z,103521.25
2023-04-18T20:49:36.730Z,103525.53
2023-04-18T20:52:03.654Z,103523.56
2023-04-18T20:54:30.488Z,103523.84
2023-04-18T20:56:57.195Z,103529.09
2023-04-18T20:59:24.126Z,103529.16
2023-04-18T21:01:51.054Z,103540.75
2023-04-18T21:04:18.085Z,103525.47
2023-04-18T21:06:45.066Z,103526.38
2023-04-18T21:09:11.842Z,103529.66
2023-04-18T21:11:38.598Z,103523.69
2023-04-18T21:14:06.754Z,103529.97
2023-04-18T21:16:33.946Z,103525.41
2023-04-18T21:19:00.699Z,103520.94
2023-04-18T21:21:27.386Z,103528.06
2023-04-18T21:23:54.146Z,103530.78
2023-04-18T21:26:21.096Z,103527.31
2023-04-18T21:28:56.325Z,103525.22
2023-04-18T21:31:23.578Z,103529.09
2023-04-18T21:33:57.326Z,103533.53
2023-04-18T21:36:25.004Z,103539.06
2023-04-18T21:38:53.313Z,103527.38
2023-04-18T21:41:20.850Z,103533.75
2023-04-18T21:43:47.882Z,103537.53
2023-04-18T21:46:15.262Z,103540.06
2023-04-18T21:48:43.549Z,103541.91
2023-04-18T21:51:11.947Z,103540.13
2023-04-18T21:53:39.037Z,103534.66
2023-04-18T21:56:06.389Z,103540.19
2023-04-18T21:58:33.445Z,103535.84
2023-04-18T22:01:00.321Z,103548.69
2023-04-18T22:03:29.049Z,103543.13
2023-04-18T22:05:56.619Z,103545.75
2023-04-18T22:08:26.519Z,103542.94
2023-04-18T22:10:58.198Z,103542.25
2023-04-18T22:13:30.145Z,103540.56
2023-04-18T22:15:58.269Z,103549.56
2023-04-18T22:18:25.457Z,103543.38
2023-04-18T22:20:53.775Z,103546.31
2023-04-18T22:23:20.715Z,103547.06
2023-04-18T22:25:47.765Z,103551.94
2023-04-18T22:28:14.585Z,103551.81
2023-04-18T22:30:41.586Z,103552.19
2023-04-18T22:33:09.257Z,103560.38
2023-04-18T22:35:35.965Z,103551.66
2023-04-18T22:38:02.655Z,103553.47
2023-04-18T22:40:29.360Z,103549.88
2023-04-18T22:42:56.097Z,103554.19
2023-04-18T22:45:22.924Z,103555.03
2023-04-18T22:47:49.602Z,103548.75
2023-04-18T22:50:16.400Z,103545.13
2023-04-18T22:52:43.077Z,103539.78
2023-04-18T22:55:10.048Z,103535.28
2023-04-18T22:57:38.476Z,103538.44
2023-04-18T23:00:06.676Z,103537.66
2023-04-18T23:02:33.495Z,103533.75
2023-04-18T23:05:02.408Z,103534.88
2023-04-18T23:07:29.200Z,103527.56
2023-04-18T23:09:56.052Z,103525.94
2023-04-18T23:12:22.827Z,103527.78
2023-04-18T23:14:49.789Z,103525.78
2023-04-18T23:17:16.669Z,103531.19
2023-04-18T23:19:45.137Z,103526.06
2023-04-18T23:22:11.953Z,103530.69
2023-04-18T23:24:38.996Z,103524.09
2023-04-18T23:27:05.913Z,103510.84
2023-04-18T23:29:37.764Z,103517.16
2023-04-18T23:32:05.694Z,103511.75
2023-04-18T23:34:32.408Z,103515.94
2023-04-18T23:37:00.099Z,103517.97
2023-04-18T23:39:26.907Z,103515.47
2023-04-18T23:41:53.585Z,103518.03
2023-04-18T23:44:20.465Z,103518.22
2023-04-18T23:46:47.859Z,103524.47
2023-04-18T23:49:15.086Z,103517.34
2023-04-18T23:51:42.168Z,103523.66
2023-04-18T23:54:08.958Z,103518.44
2023-04-18T23:56:35.689Z,103513.06
2023-04-18T23:59:02.570Z,103513.75
